Time;durP1;ratioP1;P1;durP2;ratioP2;P2;SDS_P1;SDS_P2;PMS_P1;PMS_P2;Temp;Humidity;BMP_temperature;BMP_pressure;BME280_temperature;BME280_humidity;BME280_pressure;Samples;Min_cycle;Max_cycle;Signal;HPM_P1;HPM_P2
2023/05/07 00:01:17;;;;;;;18.27;15.48;;;15.20;99.90;;;;;;5038674;28;20120;-59
2023/05/07 00:03:43;;;;;;;16.88;15.13;;;15.20;99.90;;;;;;5039662;28;20036;-59
2023/05/07 00:06:10;;;;;;;17.05;14.52;;;15.20;99.90;;;;;;5039410;28;20072;-58
2023/05/07 00:08:35;;;;;;;19.10;14.57;;;15.20;99.90;;;;;;5041967;28;20119;-58
2023/05/07 00:11:01;;;;;;;17.17;15.40;;;15.20;99.90;;;;;;5054397;28;20103;-59
2023/05/07 00:13:27;;;;;;;16.30;14.40;;;15.20;99.90;;;;;;5042688;28;20041;-60
2023/05/07 00:15:52;;;;;;;16.80;15.00;;;15.20;99.90;;;;;;5052323;28;20053;-59
2023/05/07 00:18:20;;;;;;;16.95;15.15;;;15.20;99.90;;;;;;5048076;28;20030;-59
2023/05/07 00:20:46;;;;;;;20.67;15.43;;;15.20;99.90;;;;;;5055602;28;20140;-59
2023/05/07 00:23:12;;;;;;;19.10;15.75;;;15.10;99.90;;;;;;5042974;28;20053;-59
2023/05/07 00:25:37;;;;;;;19.77;15.95;;;15.20;99.90;;;;;;5052476;28;20051;-59
2023/05/07 00:28:03;;;;;;;23.23;16.08;;;15.10;99.90;;;;;;5045470;28;20045;-60
2023/05/07 00:30:29;;;;;;;21.38;16.08;;;15.10;99.90;;;;;;5039119;28;20045;-59
2023/05/07 00:32:55;;;;;;;19.15;16.35;;;15.10;99.90;;;;;;5050982;28;20045;-59
2023/05/07 00:35:21;;;;;;;20.83;16.23;;;15.10;99.90;;;;;;5057462;28;20041;-59
2023/05/07 00:37:48;;;;;;;20.10;16.70;;;15.10;99.90;;;;;;5058342;28;20116;-59
2023/05/07 00:40:14;;;;;;;20.95;17.85;;;15.00;99.90;;;;;;5056325;28;20128;-59
2023/05/07 00:42:40;;;;;;;22.83;17.85;;;15.00;99.90;;;;;;5059034;28;20037;-58
2023/05/07 00:45:07;;;;;;;22.83;18.60;;;15.00;99.90;;;;;;5058005;28;20456;-59
2023/05/07 00:47:33;;;;;;;23.90;17.55;;;15.00;99.90;;;;;;5056392;28;20149;-59
2023/05/07 00:49:59;;;;;;;22.25;19.58;;;14.90;99.90;;;;;;5045079;28;20064;-59
2023/05/07 00:52:26;;;;;;;26.10;20.35;;;14.90;99.90;;;;;;5036726;28;20101;-59
2023/05/07 00:54:53;;;;;;;24.02;20.75;;;14.90;99.90;;;;;;5055429;28;20132;-59
2023/05/07 00:57:20;;;;;;;23.75;19.98;;;14.90;99.90;;;;;;5056312;28;20036;-60
2023/05/07 00:59:45;;;;;;;27.35;21.15;;;14.80;99.90;;;;;;5057851;28;20488;-59
2023/05/07 01:02:11;;;;;;;23.55;19.60;;;14.80;99.90;;;;;;5056560;28;20047;-58
2023/05/07 01:04:37;;;;;;;26.23;21.45;;;14.80;99.90;;;;;;5058297;28;20134;-59
2023/05/07 01:07:04;;;;;;;24.63;20.50;;;14.80;99.90;;;;;;5044374;28;20033;-59
2023/05/07 01:09:30;;;;;;;25.90;20.67;;;14.80;99.90;;;;;;5038023;28;20053;-60
2023/05/07 01:11:57;;;;;;;24.02;20.85;;;14.80;99.90;;;;;;5048485;28;20041;-59
2023/05/07 01:14:23;;;;;;;24.58;20.55;;;14.80;99.90;;;;;;5046524;28;20047;-59
2023/05/07 01:16:50;;;;;;;26.20;21.33;;;14.70;99.90;;;;;;5059504;28;20163;-59
2023/05/07 01:19:18;;;;;;;25.95;21.35;;;14.70;99.90;;;;;;5058215;28;20041;-58
2023/05/07 01:21:47;;;;;;;25.30;20.27;;;14.70;99.90;;;;;;5058677;28;20398;-59
2023/05/07 01:24:13;;;;;;;25.58;21.58;;;14.70;99.90;;;;;;5043852;28;20045;-58
2023/05/07 01:26:39;;;;;;;26.88;21.05;;;14.70;99.90;;;;;;5037801;28;20034;-59
2023/05/07 01:29:05;;;;;;;24.98;21.27;;;14.60;99.90;;;;;;5051535;28;20060;-59
2023/05/07 01:31:33;;;;;;;26.45;21.20;;;14.60;99.90;;;;;;5056148;28;20112;-58
2023/05/07 01:34:00;;;;;;;25.50;20.27;;;14.60;99.90;;;;;;5058947;28;20156;-59
2023/05/07 01:36:28;;;;;;;25.95;21.10;;;14.60;99.90;;;;;;5044995;28;20101;-58
2023/05/07 01:38:57;;;;;;;25.58;21.40;;;14.60;99.90;;;;;;5038244;28;20094;-59
2023/05/07 01:41:23;;;;;;;26.80;21.45;;;14.50;99.90;;;;;;5049433;28;20037;-59
2023/05/07 01:43:52;;;;;;;22.23;18.55;;;14.50;99.90;;;;;;5037530;28;20053;-60
2023/05/07 01:46:18;;;;;;;26.70;21.20;;;14.50;99.90;;;;;;5044336;28;20408;-59
2023/05/07 01:48:45;;;;;;;26.83;21.05;;;14.50;99.90;;;;;;5041466;28;20263;-59
2023/05/07 01:51:12;;;;;;;25.33;19.55;;;14.50;99.90;;;;;;5044460;28;20129;-59
2023/05/07 01:53:40;;;;;;;22.77;17.92;;;14.40;99.90;;;;;;5046426;28;20043;-59
2023/05/07 01:56:06;;;;;;;21.20;18.17;;;14.40;99.90;;;;;;5059273;28;20049;-60
2023/05/07 01:58:32;;;;;;;22.42;17.13;;;14.40;99.90;;;;;;5058987;28;20069;-58
2023/05/07 02:00:58;;;;;;;21.50;15.20;;;14.40;99.90;;;;;;5058043;28;20095;-59
2023/05/07 02:03:23;;;;;;;23.33;16.80;;;14.30;99.90;;;;;;5062265;28;20044;-59
2023/05/07 02:05:49;;;;;;;22.65;17.77;;;14.30;99.90;;;;;;5060825;28;20067;-59
2023/05/07 02:08:15;;;;;;;21.67;16.00;;;14.30;99.90;;;;;;5046048;28;20401;-59
2023/05/07 02:10:40;;;;;;;18.70;15.05;;;14.30;99.90;;;;;;5051545;28;20056;-59
2023/05/07 02:13:06;;;;;;;18.23;15.07;;;14.30;99.90;;;;;;5059049;28;20037;-59
2023/05/07 02:15:32;;;;;;;19.15;14.45;;;14.30;99.90;;;;;;5051343;28;20056;-59
2023/05/07 02:18:03;;;;;;;20.90;16.50;;;14.20;99.90;;;;;;5056922;28;20037;-59
2023/05/07 02:20:29;;;;;;;18.50;15.25;;;14.20;99.90;;;;;;5047167;28;20041;-59
2023/05/07 02:22:55;;;;;;;20.52;15.88;;;14.20;99.90;;;;;;5047823;28;20078;-59
2023/05/07 02:25:21;;;;;;;19.10;15.30;;;14.20;99.90;;;;;;5059882;28;20040;-59
2023/05/07 02:27:46;;;;;;;21.35;15.88;;;14.10;99.90;;;;;;5043704;28;20065;-58
2023/05/07 02:30:12;;;;;;;18.98;14.65;;;14.10;99.90;;;;;;5048843;28;20049;-59
2023/05/07 02:32:38;;;;;;;19.10;14.98;;;14.10;99.90;;;;;;5043346;28;20088;-59
2023/05/07 02:35:05;;;;;;;23.55;16.83;;;14.10;99.90;;;;;;5054617;28;20166;-60
2023/05/07 02:37:31;;;;;;;20.13;14.95;;;14.10;99.90;;;;;;5049590;28;20048;-59
2023/05/07 02:39:57;;;;;;;21.38;16.73;;;14.00;99.90;;;;;;5060698;28;20037;-59
2023/05/07 02:42:22;;;;;;;21.55;16.75;;;14.00;99.90;;;;;;5048930;28;20048;-59
2023/05/07 02:44:48;;;;;;;22.35;16.27;;;14.00;99.90;;;;;;5044498;28;20049;-59
2023/05/07 02:47:15;;;;;;;25.27;16.48;;;13.90;99.90;;;;;;5052909;28;20062;-59
2023/05/07 02:49:40;;;;;;;20.25;15.75;;;13.90;99.90;;;;;;5042719;28;20038;-59
2023/05/07 02:52:06;;;;;;;25.05;16.35;;;13.80;99.90;;;;;;5040654;28;20092;-59
2023/05/07 02:54:32;;;;;;;24.77;17.38;;;13.80;99.90;;;;;;5041160;28;20482;-58
2023/05/07 02:56:58;;;;;;;24.70;17.80;;;13.70;99.90;;;;;;5038887;28;20080;-59
2023/05/07 02:59:26;;;;;;;21.77;17.50;;;13.70;99.90;;;;;;5054798;28;20033;-59
2023/05/07 03:01:51;;;;;;;25.05;19.17;;;13.70;99.90;;;;;;5038424;28;20037;-58
2023/05/07 03:04:17;;;;;;;25.05;18.85;;;13.70;99.90;;;;;;5041364;28;20037;-58
2023/05/07 03:06:43;;;;;;;23.30;18.35;;;13.60;99.90;;;;;;5060014;28;20059;-58
2023/05/07 03:09:08;;;;;;;21.55;17.23;;;13.60;99.90;;;;;;5060498;28;20051;-59
2023/05/07 03:11:35;;;;;;;24.88;18.73;;;13.60;99.90;;;;;;5061509;28;20040;-58
2023/05/07 03:14:01;;;;;;;23.55;18.77;;;13.50;99.90;;;;;;5074804;28;20049;-58
2023/05/07 03:16:27;;;;;;;27.52;18.15;;;13.50;99.90;;;;;;5055299;28;20037;-58
2023/05/07 03:18:53;;;;;;;25.90;18.25;;;13.50;99.90;;;;;;5056950;28;20068;-58
2023/05/07 03:21:19;;;;;;;23.30;18.95;;;13.40;99.90;;;;;;5040088;28;20498;-59
2023/05/07 03:23:45;;;;;;;23.52;19.05;;;13.40;99.90;;;;;;5046804;28;20110;-58
2023/05/07 03:26:10;;;;;;;23.08;18.60;;;13.40;99.90;;;;;;5060198;28;20068;-59
2023/05/07 03:28:37;;;;;;;26.98;19.27;;;13.30;99.90;;;;;;5061368;28;20065;-60
2023/05/07 03:31:02;;;;;;;29.95;19.50;;;13.30;99.90;;;;;;5056612;28;20037;-59
2023/05/07 03:33:28;;;;;;;27.25;18.50;;;13.30;99.90;;;;;;5061038;28;20066;-59
2023/05/07 03:35:54;;;;;;;24.15;17.88;;;13.20;99.90;;;;;;5059220;28;20507;-59
2023/05/07 03:38:19;;;;;;;27.95;19.98;;;13.20;99.90;;;;;;5044992;28;20608;-59
2023/05/07 03:40:45;;;;;;;25.63;19.25;;;13.20;99.90;;;;;;5054630;28;20044;-59
2023/05/07 03:43:11;;;;;;;23.73;18.80;;;13.20;99.90;;;;;;5044201;28;20041;-59
2023/05/07 03:45:37;;;;;;;25.77;20.50;;;13.20;99.90;;;;;;5055172;28;20045;-59
2023/05/07 03:48:02;;;;;;;28.73;20.80;;;13.10;99.90;;;;;;5050063;28;20045;-59
2023/05/07 03:50:28;;;;;;;25.08;19.45;;;13.10;99.90;;;;;;5059608;28;20488;-59
2023/05/07 03:52:54;;;;;;;25.70;19.77;;;13.10;99.90;;;;;;5046546;28;20082;-58
2023/05/07 03:55:20;;;;;;;26.48;19.85;;;13.10;99.90;;;;;;5040424;28;20463;-59
2023/05/07 03:57:45;;;;;;;24.20;18.65;;;13.00;99.90;;;;;;5048365;28;20045;-59
2023/05/07 04:00:12;;;;;;;26.48;21.02;;;13.00;99.90;;;;;;5040022;28;20069;-59
2023/05/07 04:02:37;;;;;;;26.98;19.08;;;13.00;99.90;;;;;;5048097;28;20037;-59
2023/05/07 04:05:03;;;;;;;28.42;21.35;;;13.00;99.90;;;;;;5058690;28;20033;-59
2023/05/07 04:07:29;;;;;;;26.05;20.90;;;12.90;99.90;;;;;;5047152;28;20061;-59
2023/05/07 04:09:54;;;;;;;27.60;20.92;;;12.90;99.90;;;;;;5038898;28;20102;-59
2023/05/07 04:12:20;;;;;;;28.33;21.48;;;12.90;99.90;;;;;;5040656;28;20042;-59
2023/05/07 04:14:46;;;;;;;30.33;22.35;;;12.90;99.90;;;;;;5059090;28;20048;-58
2023/05/07 04:17:11;;;;;;;30.90;22.02;;;12.90;99.90;;;;;;5046987;28;20537;-59
2023/05/07 04:19:37;;;;;;;27.05;19.83;;;12.90;99.90;;;;;;5054604;28;20033;-59
2023/05/07 04:22:03;;;;;;;28.75;21.75;;;12.90;99.90;;;;;;5051514;28;20052;-59
2023/05/07 04:24:32;;;;;;;31.40;22.08;;;12.90;99.90;;;;;;5060277;28;20040;-58
2023/05/07 04:26:58;;;;;;;27.75;21.30;;;12.90;99.90;;;;;;5044985;28;20097;-58
2023/05/07 04:29:24;;;;;;;28.38;20.58;;;12.80;99.90;;;;;;5040801;28;20056;-58
2023/05/07 04:31:50;;;;;;;30.77;22.10;;;12.80;99.90;;;;;;5037414;28;20030;-58
2023/05/07 04:34:15;;;;;;;31.77;23.00;;;12.80;99.90;;;;;;5050625;28;20060;-59
2023/05/07 04:36:42;;;;;;;28.60;20.67;;;12.80;99.90;;;;;;5049260;28;20095;-58
2023/05/07 04:39:08;;;;;;;31.77;24.08;;;12.70;99.90;;;;;;5048349;28;20040;-59
2023/05/07 04:41:36;;;;;;;31.95;23.95;;;12.70;99.90;;;;;;5042866;28;20034;-58
2023/05/07 04:44:04;;;;;;;33.22;22.35;;;12.70;99.90;;;;;;5042135;28;20128;-59
2023/05/07 04:46:30;;;;;;;31.90;24.48;;;12.70;99.90;;;;;;5060334;28;20053;-58
2023/05/07 04:48:55;;;;;;;32.05;22.33;;;12.80;99.90;;;;;;5058494;28;20037;-58
2023/05/07 04:51:21;;;;;;;29.38;21.65;;;12.70;99.90;;;;;;5057594;28;20147;-58
2023/05/07 04:53:48;;;;;;;34.92;24.38;;;12.70;99.90;;;;;;5058701;28;20114;-58
2023/05/07 04:56:14;;;;;;;36.85;25.38;;;12.70;99.90;;;;;;5058431;28;20051;-58
2023/05/07 04:58:39;;;;;;;38.05;26.58;;;12.70;99.90;;;;;;5058872;28;20041;-58
2023/05/07 05:01:05;;;;;;;36.65;26.90;;;12.70;99.90;;;;;;5045069;28;20064;-58
2023/05/07 05:03:31;;;;;;;36.58;25.77;;;12.70;99.90;;;;;;5040109;28;20057;-58
2023/05/07 05:05:59;;;;;;;35.70;26.27;;;12.70;99.90;;;;;;5038145;28;20049;-59
2023/05/07 05:08:25;;;;;;;38.30;27.27;;;12.70;99.90;;;;;;5044309;28;20604;-58
2023/05/07 05:10:50;;;;;;;38.38;27.15;;;12.70;99.90;;;;;;5058740;28;20053;-58
2023/05/07 05:13:16;;;;;;;38.83;28.02;;;12.70;99.90;;;;;;5056997;28;20513;-59
2023/05/07 05:15:42;;;;;;;37.88;27.63;;;12.70;99.90;;;;;;5057579;28;20110;-58
2023/05/07 05:18:07;;;;;;;37.67;27.40;;;12.70;99.90;;;;;;5039839;28;20037;-59
2023/05/07 05:20:33;;;;;;;37.03;27.80;;;12.80;99.90;;;;;;5040809;28;20047;-58
2023/05/07 05:22:59;;;;;;;37.38;28.33;;;12.80;99.90;;;;;;5054029;28;20045;-58
2023/05/07 05:25:24;;;;;;;39.08;28.60;;;12.80;99.90;;;;;;5054635;28;20037;-59
2023/05/07 05:27:50;;;;;;;35.70;24.15;;;12.80;99.90;;;;;;5056762;28;20052;-58
2023/05/07 05:30:16;;;;;;;38.40;29.23;;;12.80;99.90;;;;;;5056696;28;20041;-58
2023/05/07 05:32:41;;;;;;;38.55;27.50;;;12.80;99.90;;;;;;5047761;28;20053;-58
2023/05/07 05:35:08;;;;;;;39.70;28.52;;;12.80;99.90;;;;;;5037042;28;20187;-59
2023/05/07 05:37:34;;;;;;;42.88;28.52;;;12.80;99.90;;;;;;5057059;28;20120;-58
2023/05/07 05:39:59;;;;;;;41.28;28.33;;;12.90;99.90;;;;;;5057069;28;20087;-58
2023/05/07 05:42:25;;;;;;;38.50;29.58;;;12.90;99.90;;;;;;5055474;28;20065;-58
2023/05/07 05:44:50;;;;;;;38.70;29.15;;;12.90;99.90;;;;;;5054556;28;20060;-57
2023/05/07 05:47:16;;;;;;;34.00;26.48;;;12.90;99.90;;;;;;5046229;28;20521;-57
2023/05/07 05:49:43;;;;;;;38.75;26.92;;;12.90;99.90;;;;;;5038671;28;20145;-58
2023/05/07 05:52:09;;;;;;;42.25;28.35;;;12.90;99.90;;;;;;5037667;28;20061;-58
2023/05/07 05:54:35;;;;;;;38.55;29.17;;;13.00;99.90;;;;;;5055879;28;20468;-58
2023/05/07 05:57:03;;;;;;;37.10;26.92;;;13.00;99.90;;;;;;5054218;28;20037;-58
2023/05/07 05:59:29;;;;;;;36.50;24.98;;;13.00;99.90;;;;;;5059131;28;20041;-58
2023/05/07 06:01:55;;;;;;;38.95;27.55;;;13.00;99.90;;;;;;5046217;28;20054;-57
2023/05/07 06:04:21;;;;;;;38.88;28.77;;;13.00;99.90;;;;;;5038374;28;20041;-58
2023/05/07 06:06:46;;;;;;;33.05;23.33;;;13.00;99.90;;;;;;5038318;28;20084;-58
2023/05/07 06:09:12;;;;;;;35.40;25.67;;;13.00;99.90;;;;;;5036370;28;20041;-58
2023/05/07 06:11:38;;;;;;;33.25;24.63;;;13.00;99.90;;;;;;5039253;28;20053;-59
2023/05/07 06:14:03;;;;;;;36.92;26.85;;;13.00;99.90;;;;;;5037321;28;20056;-58
2023/05/07 06:16:29;;;;;;;35.70;27.08;;;13.00;99.90;;;;;;5043898;28;20047;-59
2023/05/07 06:18:55;;;;;;;34.55;27.23;;;12.90;99.90;;;;;;5044916;28;20079;-59
2023/05/07 06:21:21;;;;;;;30.38;22.15;;;13.00;99.90;;;;;;5053537;28;20084;-59
2023/05/07 06:23:46;;;;;;;35.08;26.83;;;13.00;99.90;;;;;;5057734;28;20389;-58
2023/05/07 06:26:12;;;;;;;34.08;26.55;;;13.00;99.90;;;;;;5057439;28;20049;-58
2023/05/07 06:28:38;;;;;;;33.55;24.98;;;13.00;99.90;;;;;;5056601;28;20041;-58
2023/05/07 06:31:20;;;;;;;38.17;26.70;;;13.00;99.90;;;;;;5059241;28;20550;-59
2023/05/07 06:33:46;;;;;;;32.47;23.63;;;13.00;99.90;;;;;;5058983;28;20064;-58
2023/05/07 06:36:12;;;;;;;35.05;26.45;;;13.10;99.90;;;;;;5053072;28;20055;-58
2023/05/07 06:38:38;;;;;;;36.38;27.45;;;13.10;99.90;;;;;;5053169;28;20422;-58
2023/05/07 06:41:05;;;;;;;33.45;24.02;;;13.30;99.90;;;;;;5055439;28;20040;-58
2023/05/07 06:43:31;;;;;;;32.85;22.95;;;13.40;99.90;;;;;;5058726;28;20057;-59
2023/05/07 06:45:56;;;;;;;32.00;23.52;;;13.60;99.90;;;;;;5051629;28;20105;-59
2023/05/07 06:48:22;;;;;;;33.83;23.17;;;13.70;99.90;;;;;;5056330;28;20111;-59
2023/05/07 06:55:52;;;;;;;33.10;24.60;;;13.80;99.90;;;;;;5173954;27;20408;-60
2023/05/07 07:00:48;;;;;;;31.92;24.10;;;13.90;99.90;;;;;;5122954;27;20349;-84
2023/05/07 07:03:14;;;;;;;30.55;23.63;;;14.00;99.90;;;;;;5084415;28;20032;-87
2023/05/07 07:05:43;;;;;;;30.80;22.50;;;14.10;99.90;;;;;;5076004;28;20480;-87
2023/05/07 07:08:10;;;;;;;30.80;23.27;;;14.30;99.90;;;;;;5040196;28;20491;-87
2023/05/07 07:10:36;;;;;;;32.20;24.35;;;14.40;99.90;;;;;;5076308;28;20044;-87
2023/05/07 07:13:01;;;;;;;31.55;24.10;;;14.50;99.90;;;;;;5041039;28;20048;-88
2023/05/07 07:15:27;;;;;;;32.65;21.40;;;15.10;99.90;;;;;;5055796;28;20040;-87
2023/05/07 07:17:53;;;;;;;26.63;21.23;;;14.60;99.90;;;;;;5058861;28;20040;-87
2023/05/07 07:20:19;;;;;;;30.40;21.17;;;14.80;99.90;;;;;;5064680;28;20038;-86
2023/05/07 07:22:45;;;;;;;31.88;23.63;;;14.80;99.90;;;;;;5064419;28;20068;-87
2023/05/07 07:25:11;;;;;;;29.73;23.27;;;14.90;99.90;;;;;;5051336;28;20072;-86
2023/05/07 07:27:37;;;;;;;29.10;21.95;;;15.00;99.90;;;;;;5031810;28;20494;-86
2023/05/07 07:30:04;;;;;;;27.30;19.67;;;15.20;99.90;;;;;;5066835;28;20067;-87
2023/05/07 07:32:29;;;;;;;31.85;23.48;;;15.30;99.90;;;;;;5064322;28;20439;-85
2023/05/07 07:34:55;;;;;;;30.52;23.80;;;15.80;99.90;;;;;;5039197;28;20084;-86
2023/05/07 07:37:21;;;;;;;27.95;23.00;;;15.30;99.90;;;;;;5057140;28;20079;-86
2023/05/07 07:39:46;;;;;;;29.33;23.75;;;15.30;99.90;;;;;;5056609;28;20083;-86
2023/05/07 07:42:12;;;;;;;28.00;21.25;;;15.30;99.90;;;;;;5077027;28;20042;-87
2023/05/07 07:44:39;;;;;;;32.75;23.85;;;15.30;99.90;;;;;;5041411;28;20040;-86
2023/05/07 07:47:05;;;;;;;29.85;23.25;;;15.30;99.90;;;;;;5058427;28;20124;-87
2023/05/07 07:49:31;;;;;;;31.67;23.17;;;15.30;99.90;;;;;;5039121;28;20459;-87
2023/05/07 07:51:59;;;;;;;30.27;24.13;;;15.30;99.90;;;;;;5056694;28;20085;-87
2023/05/07 07:54:25;;;;;;;30.48;23.42;;;15.30;99.90;;;;;;5038745;28;21499;-86
2023/05/07 07:56:52;;;;;;;33.33;25.23;;;15.30;99.90;;;;;;5050948;28;20047;-85
2023/05/07 07:59:18;;;;;;;30.50;24.58;;;15.30;99.90;;;;;;5038926;28;20489;-86
2023/05/07 08:01:44;;;;;;;27.80;21.60;;;15.40;99.90;;;;;;5055827;28;20495;-87
2023/05/07 08:04:10;;;;;;;29.10;22.35;;;15.50;99.90;;;;;;5034574;28;20033;-86
2023/05/07 08:06:36;;;;;;;28.63;22.73;;;15.40;99.90;;;;;;5071967;28;20193;-87
2023/05/07 08:09:02;;;;;;;30.80;23.27;;;15.40;99.90;;;;;;5073327;28;20036;-87
2023/05/07 08:11:28;;;;;;;29.60;24.92;;;15.40;99.90;;;;;;5031679;28;20484;-86
2023/05/07 08:13:54;;;;;;;29.48;20.73;;;15.40;99.90;;;;;;5039427;28;20040;-86
2023/05/07 08:16:20;;;;;;;29.10;22.23;;;15.40;99.90;;;;;;5041652;28;20056;-86
2023/05/07 08:18:46;;;;;;;30.95;23.58;;;15.40;99.90;;;;;;5043089;28;20131;-87
2023/05/07 08:21:12;;;;;;;28.85;22.55;;;15.50;99.90;;;;;;5036001;28;20142;-87
2023/05/07 08:23:37;;;;;;;31.05;23.98;;;15.60;99.90;;;;;;5044211;28;20049;-87
2023/05/07 08:26:03;;;;;;;29.83;23.73;;;15.80;99.90;;;;;;5041385;28;20034;-86
2023/05/07 08:28:29;;;;;;;28.83;25.08;;;15.90;99.90;;;;;;5031723;28;20040;-87
2023/05/07 08:30:56;;;;;;;28.77;22.63;;;16.10;99.90;;;;;;5034411;28;20292;-87
2023/05/07 08:33:22;;;;;;;31.25;25.25;;;16.30;99.90;;;;;;5056728;28;20036;-87
2023/05/07 08:35:48;;;;;;;34.22;23.77;;;16.50;99.90;;;;;;5040468;28;20098;-87
2023/05/07 08:38:13;;;;;;;29.80;22.83;;;16.80;99.90;;;;;;5041006;28;20064;-87
2023/05/07 08:40:40;;;;;;;32.42;24.63;;;17.00;99.90;;;;;;5022072;28;20076;-86
2023/05/07 08:43:07;;;;;;;30.98;25.77;;;17.30;99.90;;;;;;5022408;28;20037;-87
2023/05/07 08:45:34;;;;;;;26.08;20.38;;;17.50;99.90;;;;;;5038637;28;20522;-87
2023/05/07 08:48:03;;;;;;;30.70;24.13;;;17.70;99.90;;;;;;5058244;28;20036;-85
2023/05/07 08:50:29;;;;;;;29.92;23.15;;;17.70;99.90;;;;;;5041301;28;20480;-87
2023/05/07 08:52:56;;;;;;;26.50;21.08;;;17.70;99.90;;;;;;5052613;28;20044;-85
2023/05/07 08:55:23;;;;;;;33.08;23.20;;;17.80;99.90;;;;;;5063830;28;20043;-86
2023/05/07 08:57:49;;;;;;;29.67;23.10;;;17.90;99.90;;;;;;5041899;28;20068;-87
2023/05/07 09:00:15;;;;;;;29.92;25.73;;;17.90;99.90;;;;;;5039967;28;20060;-87
2023/05/07 09:02:41;;;;;;;27.63;24.63;;;18.00;99.90;;;;;;5039076;28;20083;-87
2023/05/07 09:05:08;;;;;;;29.13;24.23;;;18.10;99.90;;;;;;5037009;28;20068;-87
2023/05/07 09:07:34;;;;;;;28.17;22.02;;;18.30;99.90;;;;;;5038491;28;20388;-87
2023/05/07 09:10:05;;;;;;;27.92;22.73;;;18.40;99.90;;;;;;5068635;28;20515;-86
2023/05/07 09:12:31;;;;;;;27.75;21.23;;;18.40;99.90;;;;;;5056731;28;20044;-87
2023/05/07 09:14:58;;;;;;;29.92;23.90;;;18.50;99.90;;;;;;5020458;28;20087;-87
2023/05/07 09:17:24;;;;;;;28.65;22.65;;;18.50;99.90;;;;;;5059620;28;20045;-87
2023/05/07 09:19:50;;;;;;;26.65;21.95;;;18.60;99.90;;;;;;5040340;28;20041;-87
2023/05/07 09:22:16;;;;;;;27.45;23.88;;;18.50;99.90;;;;;;5019879;28;20037;-87
2023/05/07 09:24:50;;;;;;;26.85;22.00;;;18.50;99.90;;;;;;5023955;28;20067;-87
2023/05/07 09:27:17;;;;;;;24.55;20.48;;;18.50;99.90;;;;;;5040823;28;20393;-87
2023/05/07 09:29:43;;;;;;;26.40;20.95;;;18.50;99.90;;;;;;5041229;28;20106;-87
2023/05/07 09:32:10;;;;;;;30.02;24.10;;;18.40;99.90;;;;;;5039968;28;20402;-87
2023/05/07 09:34:38;;;;;;;26.65;20.95;;;18.30;99.90;;;;;;5040200;28;20067;-87
2023/05/07 09:37:05;;;;;;;31.02;24.27;;;18.20;99.90;;;;;;5057083;28;20119;-87
2023/05/07 09:39:45;;;;;;;30.35;24.63;;;18.30;99.90;;;;;;5042985;28;20503;-86
2023/05/07 09:42:11;;;;;;;31.20;23.83;;;18.40;99.90;;;;;;5059536;28;20043;-86
2023/05/07 09:44:40;;;;;;;29.50;21.77;;;18.50;99.90;;;;;;5043781;28;20039;-87
2023/05/07 09:47:07;;;;;;;25.73;20.15;;;18.70;99.90;;;;;;5059453;28;20046;-87
2023/05/07 09:49:39;;;;;;;31.15;23.33;;;18.80;99.90;;;;;;5058988;28;20043;-86
2023/05/07 09:52:08;;;;;;;23.83;21.20;;;18.90;99.90;;;;;;5058910;28;20054;-86
2023/05/07 09:54:35;;;;;;;29.92;21.52;;;18.80;99.90;;;;;;5073010;28;20118;-87
2023/05/07 09:57:05;;;;;;;26.13;21.02;;;18.90;99.90;;;;;;5056839;28;20040;-87
2023/05/07 09:59:36;;;;;;;26.05;20.33;;;18.90;99.90;;;;;;5056133;28;20493;-88
2023/05/07 10:02:04;;;;;;;26.98;20.45;;;18.90;99.90;;;;;;5039491;28;20051;-87
2023/05/07 10:04:31;;;;;;;30.02;23.67;;;18.90;99.90;;;;;;5040732;28;20480;-87
2023/05/07 10:06:57;;;;;;;24.60;20.25;;;18.90;99.90;;;;;;5053947;28;20028;-85
2023/05/07 10:09:23;;;;;;;26.30;21.08;;;19.10;99.90;;;;;;5035371;28;20037;-85
2023/05/07 10:11:49;;;;;;;27.90;21.38;;;19.20;99.90;;;;;;5025370;28;20044;-86
2023/05/07 10:14:15;;;;;;;26.52;21.00;;;19.10;99.90;;;;;;5039528;28;20047;-86
2023/05/07 10:16:41;;;;;;;28.45;22.15;;;19.10;99.90;;;;;;5040718;28;20044;-87
2023/05/07 10:19:10;;;;;;;26.15;21.02;;;19.20;99.90;;;;;;5038588;28;20058;-86
2023/05/07 10:21:59;;;;;;;26.42;21.23;;;19.50;99.90;;;;;;5048853;28;20046;-87
2023/05/07 10:24:33;;;;;;;24.75;21.80;;;19.60;99.90;;;;;;5059158;28;20052;-87
2023/05/07 10:27:02;;;;;;;27.05;20.77;;;19.70;99.90;;;;;;5075816;28;20043;-86
2023/05/07 10:30:17;;;;;;;26.20;21.45;;;19.80;99.90;;;;;;5049484;28;20044;-86
2023/05/07 10:32:47;;;;;;;26.23;21.58;;;19.80;99.90;;;;;;4979263;28;20044;-86
2023/05/07 10:35:29;;;;;;;23.55;19.38;;;19.70;99.90;;;;;;5030937;28;20035;-88
2023/05/07 10:37:55;;;;;;;27.05;21.60;;;19.80;99.90;;;;;;5042773;28;20043;-88
2023/05/07 10:40:21;;;;;;;27.48;24.25;;;19.80;99.90;;;;;;5055035;28;20040;-88
2023/05/07 10:43:02;;;;;;;28.55;22.52;;;19.80;99.90;;;;;;5038369;28;20036;-87
2023/05/07 10:45:28;;;;;;;29.20;23.88;;;20.00;99.90;;;;;;5022969;28;20033;-87
2023/05/07 10:48:07;;;;;;;29.42;21.75;;;20.10;99.90;;;;;;5019124;28;20144;-87
2023/05/07 10:50:32;;;;;;;27.58;22.02;;;20.30;99.90;;;;;;5047608;28;20073;-86
2023/05/07 10:53:16;;;;;;;27.30;22.77;;;20.40;99.90;;;;;;5057027;28;20443;-86
2023/05/07 10:55:49;;;;;;;25.60;20.77;;;20.50;99.90;;;;;;5033680;28;20591;-87
2023/05/07 10:58:34;;;;;;;29.60;24.17;;;20.50;99.90;;;;;;5041512;28;20565;-87
2023/05/07 11:01:01;;;;;;;29.00;22.42;;;20.50;99.90;;;;;;5054529;28;20057;-87
2023/05/07 11:03:28;;;;;;;24.48;20.23;;;20.60;99.90;;;;;;5039869;28;20045;-88
2023/05/07 11:06:11;;;;;;;24.38;19.52;;;20.80;99.90;;;;;;5038894;28;20111;-88
2023/05/07 11:08:56;;;;;;;27.67;22.63;;;20.90;99.90;;;;;;5022874;28;20105;-88
2023/05/07 11:11:46;;;;;;;22.92;20.35;;;20.90;99.90;;;;;;5043535;28;20062;-87
2023/05/07 11:14:11;;;;;;;23.08;19.88;;;20.90;99.90;;;;;;5067941;28;20060;-87
2023/05/07 11:16:38;;;;;;;28.30;21.35;;;20.90;99.90;;;;;;5040992;28;20036;-87
2023/05/07 11:19:04;;;;;;;23.60;20.77;;;21.00;99.90;;;;;;5021856;28;20045;-88
2023/05/07 11:21:41;;;;;;;24.08;19.50;;;21.00;99.90;;;;;;5035446;28;20037;-88
2023/05/07 11:24:10;;;;;;;21.00;18.02;;;20.90;99.90;;;;;;5062779;28;20040;-88
2023/05/07 11:26:43;;;;;;;22.80;19.75;;;21.00;99.90;;;;;;5059150;28;20040;-88
2023/05/07 11:29:20;;;;;;;21.23;17.55;;;21.00;99.90;;;;;;5058865;28;20547;-87
2023/05/07 11:31:53;;;;;;;22.88;18.35;;;21.10;99.90;;;;;;5059759;28;20093;-88
2023/05/07 11:34:23;;;;;;;24.58;18.90;;;21.10;99.90;;;;;;5046672;28;20102;-89
2023/05/07 11:36:50;;;;;;;22.38;18.83;;;21.20;99.90;;;;;;5037391;28;20045;-88
2023/05/07 11:39:28;;;;;;;27.45;21.58;;;21.20;99.90;;;;;;5044597;28;20103;-88
2023/05/07 11:41:54;;;;;;;22.58;17.98;;;21.20;99.90;;;;;;5035146;28;20037;-89
2023/05/07 11:44:19;;;;;;;21.48;18.15;;;21.20;99.90;;;;;;5029844;28;20086;-89
2023/05/07 11:46:45;;;;;;;23.20;18.95;;;21.30;99.90;;;;;;5027509;28;20037;-87
2023/05/07 11:49:11;;;;;;;23.58;18.95;;;21.30;99.90;;;;;;5029262;28;20040;-88
2023/05/07 11:51:38;;;;;;;24.38;19.88;;;21.30;99.90;;;;;;5022196;28;20448;-89
2023/05/07 11:54:08;;;;;;;20.63;16.80;;;21.20;99.90;;;;;;5053907;28;20040;-89
2023/05/07 11:56:38;;;;;;;23.70;18.35;;;21.30;99.90;;;;;;5025235;28;20048;-88
2023/05/07 11:59:04;;;;;;;24.77;18.65;;;21.40;99.90;;;;;;5042721;28;20040;-89
2023/05/07 12:01:30;;;;;;;24.45;18.67;;;21.40;99.90;;;;;;5041857;28;20125;-89
2023/05/07 12:03:56;;;;;;;21.83;18.30;;;21.30;99.90;;;;;;5044897;28;20473;-88
2023/05/07 12:06:21;;;;;;;22.35;18.23;;;21.30;99.90;;;;;;5045242;28;20036;-88
2023/05/07 12:08:47;;;;;;;21.40;16.95;;;21.30;99.90;;;;;;5024813;28;20044;-86
2023/05/07 12:11:22;;;;;;;19.58;16.40;;;21.30;99.90;;;;;;5031942;28;20036;-87
2023/05/07 12:13:48;;;;;;;20.80;18.33;;;21.30;99.90;;;;;;5041219;28;20495;-88
2023/05/07 12:16:14;;;;;;;21.88;19.30;;;21.50;99.90;;;;;;5026320;28;20032;-88
2023/05/07 12:18:40;;;;;;;23.10;17.63;;;21.60;99.90;;;;;;5024908;28;20098;-88
2023/05/07 12:21:06;;;;;;;22.73;18.35;;;21.50;99.90;;;;;;5041785;28;20059;-87
2023/05/07 12:23:34;;;;;;;22.00;19.10;;;21.50;99.90;;;;;;5038509;28;20076;-88
2023/05/07 12:26:00;;;;;;;19.38;16.75;;;21.60;99.90;;;;;;5063421;28;20481;-85
2023/05/07 12:28:26;;;;;;;19.65;17.15;;;21.60;99.90;;;;;;5049803;28;20480;-88
2023/05/07 12:30:52;;;;;;;22.27;19.33;;;21.60;99.90;;;;;;5042551;28;20136;-88
2023/05/07 12:33:28;;;;;;;23.27;18.08;;;21.50;99.90;;;;;;5039339;28;20500;-88
2023/05/07 12:35:56;;;;;;;20.73;18.33;;;21.50;99.90;;;;;;5039017;28;20429;-90